Spring Lake Heights, New Jersey
Current Conditions -  °F | °C
As of 9:15 AM on Sunday 25 Jan 2015 (Local Time) from KBLM Reporting Station
Broken Clouds Broken Clouds  
Wind Chill: 27°   Ceiling: 6500
Heat Index: 36°   Visibility: 10mi
Dew Point: 27°   Wind: 13mph
Humidity: 70%   Direction: 260°W
Pressure: 29.76"   Gusts: 18mph
Location:  40.1528°N, 74.0364°W
Report Text: KBLM 251415Z AUTO 26011G16KT 10SM BKN065 02/M03 A2976 RMK AO1
Loading
Personal Weather Stations






























Interactive Weather Map New forecast layout! Learn more

10-Day Weather Forecast

Advertisements
Track Severe Weather on mobile